Airfield :
LOGIN :

Register | Disclaimer

   EN    FR    IT 

 










Legend :    VFR   Marginal VFR   IFR   Intensive IFR   Very Intensive IFR
Visi :
Ceiling :
>= 8 km
>= 3000ft
5 to 8 km
1000 to 3000 ft
1500m to 5 km
500 to 1000 ft
800 to 1500m
200 to 500 ft
< 800m
< 200 ft
Symbols :   Thunderstorms  Fog  Heavy snow  Heavy precipitations  Wind > 20 kt
SIGMETs :     Misc.  Thunderstorms  Icing  Turbulence  Mountain Waves  Volcanic Ashes







- Airport Elevation : 44 ft
- IATA code : SOU
- Download approach charts


EGHI - Southampton

CURRENT METAR :
  • 211720Z 28006KT 240V310 9999 FEW015 SCT030 15/09 Q1016

EXPIRED METARs :
  • 211650Z 28005KT 240V320 9999 FEW015 SCT025 15/11 Q1016
  • 211620Z 29006KT 260V340 9999 FEW012 SCT020 15/12 Q1015
  • 211550Z 28005KT 240V320 9999 FEW012 SCT020 15/13 Q1015
  • 211520Z 29007KT 260V330 9999 FEW010 SCT018 15/13 Q1015
  • 211450Z 21006KT 180V240 9999 -RA SCT008 BKN014 15/14 Q1014

TAF TAF EGHI
Valid from the 21 at 15:00 until the 21 at 22:00 UTC


211404Z 2115/2122 18010KT 9999 SCT016
BECMG 2115/2118 25010KT
PROB30
TEMPO 2115/2117 BKN012
ATIS : +44 23 8062 7103
No reported NOTAMs for that airfield.



MET'MAP, your aeronautical weather chart ! - Copyright ORBIFLY December 2007 - Disclaimer

ORBIFLY MET'MAP TEAM :

Programming & Development : Alexandra Zaïnal
Concept & Development : Baudouin d'Aumeries
Co-Development & Prog : Marc-Olivier Méhu
Technical & hardware support : Manuel Goepfert

Contact : metmap@orbifly.com




SOURCES & CREDITS :

   NOAA